Time;durP1;ratioP1;P1;durP2;ratioP2;P2;SDS_P1;SDS_P2;PMS_P1;PMS_P2;Temp;Humidity;BMP_temperature;BMP_pressure;BME280_temperature;BME280_humidity;BME280_pressure;Samples;Min_cycle;Max_cycle;Signal;HPM_P1;HPM_P2
2023/01/10 00:01:41;;;;;;;3.33;1.70;;;3.00;99.90;;;;;;6046193;23;20034;-86
2023/01/10 00:04:29;;;;;;;3.58;1.60;;;3.00;99.90;;;;;;6065064;23;20081;-85
2023/01/10 00:07:17;;;;;;;6.03;1.88;;;3.00;99.90;;;;;;6065443;23;20030;-85
2023/01/10 00:10:07;;;;;;;2.85;1.88;;;2.90;99.90;;;;;;6045182;23;20048;-86
2023/01/10 00:16:10;;;;;;;4.13;2.20;;;2.90;99.90;;;;;;6064854;23;20422;-85
2023/01/10 00:19:00;;;;;;;2.75;1.90;;;2.90;99.90;;;;;;6065356;23;20081;-84
2023/01/10 00:21:47;;;;;;;3.20;2.20;;;2.90;99.90;;;;;;6046370;23;20027;-86
2023/01/10 00:24:34;;;;;;;2.33;1.98;;;2.90;99.90;;;;;;6055076;23;20053;-84
2023/01/10 00:27:22;;;;;;;2.70;2.50;;;2.90;99.90;;;;;;6048698;23;20027;-85
2023/01/10 00:30:13;;;;;;;4.03;2.22;;;2.90;99.90;;;;;;6064352;23;20035;-87
2023/01/10 00:33:00;;;;;;;3.88;2.22;;;2.80;99.90;;;;;;6045781;23;20102;-86
2023/01/10 00:35:47;;;;;;;4.95;2.78;;;2.90;99.90;;;;;;6064560;23;20165;-85
2023/01/10 00:38:35;;;;;;;2.42;2.17;;;2.90;99.90;;;;;;6045444;23;20023;-85
2023/01/10 00:44:28;;;;;;;4.50;2.33;;;2.80;99.90;;;;;;6065530;23;20430;-86
2023/01/10 00:47:15;;;;;;;4.72;2.90;;;2.90;99.90;;;;;;6044941;23;20030;-85
2023/01/10 00:50:07;;;;;;;7.95;2.45;;;2.80;99.90;;;;;;6056223;23;20101;-85
2023/01/10 00:52:54;;;;;;;5.85;2.92;;;2.80;99.90;;;;;;6046060;23;20038;-87
2023/01/10 00:55:41;;;;;;;3.53;2.70;;;2.80;99.90;;;;;;6045805;23;20366;-85
2023/01/10 00:58:31;;;;;;;4.90;3.70;;;2.70;99.90;;;;;;6046928;23;20030;-85
2023/01/10 01:01:19;;;;;;;3.90;3.33;;;2.70;99.90;;;;;;6044997;23;20421;-85
2023/01/10 01:04:06;;;;;;;3.58;3.28;;;2.70;99.90;;;;;;6044782;23;20030;-85
2023/01/10 01:06:55;;;;;;;9.85;3.47;;;2.80;99.90;;;;;;6045198;23;20035;-85
2023/01/10 01:12:55;;;;;;;3.03;2.70;;;2.70;99.90;;;;;;6065082;23;20037;-85
2023/01/10 01:15:46;;;;;;;3.00;2.70;;;2.70;99.90;;;;;;6064774;23;20144;-85
2023/01/10 01:18:34;;;;;;;8.55;2.80;;;2.70;99.90;;;;;;6045636;23;20027;-85
2023/01/10 01:21:21;;;;;;;6.68;3.30;;;2.70;99.90;;;;;;6045687;23;20034;-84
2023/01/10 01:24:14;;;;;;;3.80;2.67;;;2.60;99.90;;;;;;6044824;23;20354;-86
2023/01/10 01:27:04;;;;;;;2.92;2.25;;;2.60;99.90;;;;;;6044605;23;20027;-85
2023/01/10 01:30:12;;;;;;;3.75;2.42;;;2.50;99.90;;;;;;6048555;23;20328;-84
2023/01/10 01:32:59;;;;;;;3.00;2.38;;;2.50;99.90;;;;;;6045052;23;20054;-85
2023/01/10 01:35:47;;;;;;;3.70;2.75;;;2.50;99.90;;;;;;6070242;23;20033;-85
2023/01/10 01:38:36;;;;;;;3.08;2.47;;;2.50;99.90;;;;;;6077134;23;20027;-86
2023/01/10 01:44:41;;;;;;;3.30;2.50;;;2.50;99.90;;;;;;6078132;23;20027;-85
2023/01/10 01:47:31;;;;;;;3.60;2.55;;;2.50;99.90;;;;;;6058254;23;20122;-85
2023/01/10 01:50:31;;;;;;;2.92;2.50;;;2.50;99.90;;;;;;6078053;23;20090;-86
2023/01/10 01:53:30;;;;;;;4.80;2.60;;;2.50;99.90;;;;;;6057189;23;20098;-86
2023/01/10 01:56:27;;;;;;;6.47;2.80;;;2.50;99.90;;;;;;6065858;23;20015;-85
2023/01/10 01:59:25;;;;;;;3.35;2.47;;;2.50;99.90;;;;;;6069292;23;20011;-84
2023/01/10 02:02:18;;;;;;;3.08;2.22;;;2.50;99.90;;;;;;6062430;23;20027;-84
2023/01/10 02:05:10;;;;;;;2.58;2.33;;;2.50;99.90;;;;;;6061657;23;20031;-84
2023/01/10 02:07:58;;;;;;;3.85;2.72;;;2.50;99.90;;;;;;6058228;23;20073;-84
2023/01/10 02:11:04;;;;;;;4.63;2.42;;;2.50;99.90;;;;;;6056462;23;20023;-85
2023/01/10 02:13:56;;;;;;;6.13;2.30;;;2.60;99.90;;;;;;6054750;23;20038;-84
2023/01/10 02:16:43;;;;;;;6.40;3.03;;;2.50;99.90;;;;;;6050401;23;20023;-84
2023/01/10 02:19:52;;;;;;;3.40;2.50;;;2.60;99.90;;;;;;6047134;23;20031;-85
2023/01/10 02:22:49;;;;;;;3.47;2.72;;;2.60;99.90;;;;;;6071018;23;20038;-85
2023/01/10 02:25:55;;;;;;;5.00;2.35;;;2.60;99.90;;;;;;6076138;23;20043;-87
2023/01/10 02:29:13;;;;;;;3.90;2.72;;;2.60;99.90;;;;;;6075127;23;20038;-84
2023/01/10 02:32:44;;;;;;;5.20;2.33;;;2.60;99.90;;;;;;6050715;23;20323;-85
2023/01/10 02:36:50;;;;;;;2.40;2.15;;;2.60;99.90;;;;;;6069937;23;20081;-86
2023/01/10 02:39:54;;;;;;;3.00;1.77;;;2.70;99.90;;;;;;6072111;23;20090;-85
2023/01/10 02:42:50;;;;;;;3.00;1.90;;;2.70;99.90;;;;;;6069309;23;20030;-87
2023/01/10 02:46:01;;;;;;;2.88;1.77;;;2.80;99.90;;;;;;6067429;23;20126;-84
2023/01/10 02:49:20;;;;;;;3.00;1.45;;;2.80;99.90;;;;;;6068319;23;20419;-85
2023/01/10 02:52:27;;;;;;;2.17;1.70;;;2.80;99.90;;;;;;6045825;23;20037;-86
2023/01/10 02:55:14;;;;;;;1.73;1.33;;;2.80;99.90;;;;;;6070777;23;20038;-84
2023/01/10 02:58:33;;;;;;;5.18;1.50;;;2.80;99.90;;;;;;6066854;23;20047;-85
2023/01/10 03:02:00;;;;;;;1.42;1.33;;;2.80;99.90;;;;;;6044187;23;20034;-85
2023/01/10 03:05:21;;;;;;;1.30;1.20;;;2.80;99.90;;;;;;6063407;23;20041;-85
2023/01/10 03:08:38;;;;;;;1.52;1.20;;;2.90;99.90;;;;;;6044788;23;20058;-86
2023/01/10 03:14:48;;;;;;;2.47;1.45;;;2.80;99.90;;;;;;6062730;23;20027;-85
2023/01/10 03:17:36;;;;;;;2.10;1.70;;;2.80;99.90;;;;;;6044364;23;20026;-86
2023/01/10 03:20:25;;;;;;;5.28;1.85;;;2.80;99.90;;;;;;6044157;23;20135;-86
2023/01/10 03:23:15;;;;;;;1.67;1.58;;;2.80;99.90;;;;;;6064617;23;20027;-85
2023/01/10 03:26:05;;;;;;;2.50;1.60;;;2.70;99.90;;;;;;6044890;23;20031;-85
2023/01/10 03:29:01;;;;;;;4.10;2.20;;;2.70;99.90;;;;;;6046486;23;20031;-85
2023/01/10 03:31:52;;;;;;;3.53;2.42;;;2.70;99.90;;;;;;6063675;23;20030;-86
2023/01/10 03:34:42;;;;;;;4.38;2.05;;;2.70;99.90;;;;;;6065351;23;20026;-87
2023/01/10 03:37:35;;;;;;;6.13;2.13;;;2.70;99.90;;;;;;6063259;23;20031;-85
2023/01/10 03:40:42;;;;;;;6.25;2.22;;;2.70;99.90;;;;;;6064190;23;20026;-87
2023/01/10 03:46:57;;;;;;;5.15;2.17;;;2.80;99.90;;;;;;6066170;23;20058;-85
2023/01/10 03:50:06;;;;;;;4.03;1.63;;;2.80;99.90;;;;;;6045346;23;20038;-86
2023/01/10 03:52:53;;;;;;;4.07;1.70;;;2.80;99.90;;;;;;6046028;23;20448;-83
2023/01/10 03:55:46;;;;;;;3.47;1.65;;;2.80;99.90;;;;;;6045421;23;20059;-84
2023/01/10 03:58:33;;;;;;;3.90;2.00;;;2.80;99.90;;;;;;6075130;23;20023;-84
2023/01/10 04:01:24;;;;;;;3.17;1.50;;;2.90;99.90;;;;;;6066533;23;20039;-84
2023/01/10 04:04:11;;;;;;;1.50;1.40;;;2.80;99.90;;;;;;6045631;23;20406;-83
2023/01/10 04:06:58;;;;;;;2.83;1.50;;;2.80;99.90;;;;;;6064773;23;20048;-84
2023/01/10 04:09:46;;;;;;;3.65;1.40;;;2.80;99.90;;;;;;6064136;23;20031;-84
2023/01/10 04:12:34;;;;;;;3.22;1.40;;;2.70;99.90;;;;;;6043417;23;20407;-85
2023/01/10 04:15:24;;;;;;;2.22;1.38;;;2.60;99.90;;;;;;6045376;23;20043;-84
2023/01/10 04:18:11;;;;;;;1.60;1.50;;;2.60;99.90;;;;;;6066864;23;20479;-83
2023/01/10 04:21:02;;;;;;;3.55;1.40;;;2.60;99.90;;;;;;6045112;23;20122;-85
2023/01/10 04:23:49;;;;;;;1.48;1.38;;;2.60;99.90;;;;;;6045297;23;20035;-85
2023/01/10 04:26:38;;;;;;;1.50;1.40;;;2.50;99.90;;;;;;6064626;23;20027;-85
2023/01/10 04:29:26;;;;;;;1.65;1.52;;;2.50;99.90;;;;;;6045075;23;20038;-84
2023/01/10 04:32:13;;;;;;;2.92;1.88;;;2.40;99.90;;;;;;6066351;23;20023;-83
2023/01/10 04:35:05;;;;;;;3.75;1.80;;;2.30;99.90;;;;;;6064918;23;20031;-84
2023/01/10 04:37:53;;;;;;;2.00;1.80;;;2.30;99.90;;;;;;6065377;23;20057;-85
2023/01/10 04:40:55;;;;;;;2.25;1.48;;;2.20;99.90;;;;;;6044705;23;20470;-86
2023/01/10 04:43:51;;;;;;;3.33;1.80;;;2.20;99.90;;;;;;6047543;23;20042;-84
2023/01/10 04:46:45;;;;;;;3.58;1.60;;;2.10;99.90;;;;;;6072999;23;20082;-85
2023/01/10 04:49:35;;;;;;;2.25;1.60;;;2.10;99.90;;;;;;6043466;23;20493;-84
2023/01/10 04:52:24;;;;;;;2.63;1.40;;;2.20;99.90;;;;;;6044771;23;20026;-85
2023/01/10 04:55:15;;;;;;;3.20;1.90;;;2.20;99.90;;;;;;6050052;23;20419;-86
2023/01/10 04:58:03;;;;;;;5.55;2.38;;;2.20;99.90;;;;;;6052604;23;20027;-86
2023/01/10 05:00:54;;;;;;;5.90;2.47;;;2.20;99.90;;;;;;6033193;23;20034;-86
2023/01/10 05:03:59;;;;;;;6.85;3.28;;;2.20;99.90;;;;;;6045566;23;20026;-85
2023/01/10 05:06:48;;;;;;;10.02;3.13;;;2.30;99.90;;;;;;6046591;23;20037;-84
2023/01/10 05:09:35;;;;;;;9.23;2.60;;;2.30;99.90;;;;;;6065234;23;20109;-85
2023/01/10 05:12:22;;;;;;;7.78;3.67;;;2.30;99.90;;;;;;6044433;23;20103;-86
2023/01/10 05:15:10;;;;;;;6.50;2.85;;;2.40;99.90;;;;;;6067921;23;20300;-84
2023/01/10 05:18:12;;;;;;;10.25;3.70;;;2.40;99.90;;;;;;6045018;23;20108;-86
2023/01/10 05:21:08;;;;;;;10.13;3.55;;;2.40;99.90;;;;;;6044953;23;20027;-86
2023/01/10 05:23:58;;;;;;;10.45;4.05;;;2.40;99.90;;;;;;6065076;23;20041;-86
2023/01/10 05:26:52;;;;;;;9.70;4.35;;;2.40;99.90;;;;;;6065579;23;20027;-85
2023/01/10 05:29:42;;;;;;;27.83;4.85;;;2.50;99.90;;;;;;6049821;23;20049;-84
2023/01/10 05:32:32;;;;;;;11.40;4.43;;;2.50;99.90;;;;;;6047201;23;20150;-84
2023/01/10 05:35:19;;;;;;;15.20;4.90;;;2.60;99.90;;;;;;6049216;23;20523;-84
2023/01/10 05:38:08;;;;;;;17.35;4.90;;;2.60;99.90;;;;;;6045556;23;20081;-83
2023/01/10 05:41:04;;;;;;;16.77;4.10;;;2.60;99.90;;;;;;6064347;23;20042;-83
2023/01/10 05:43:54;;;;;;;17.88;5.35;;;2.60;99.90;;;;;;6044125;23;20041;-86
2023/01/10 05:46:47;;;;;;;10.60;4.30;;;2.60;99.90;;;;;;6060109;23;20035;-84
2023/01/10 05:49:40;;;;;;;15.35;4.60;;;2.60;99.90;;;;;;6045001;23;20046;-87
2023/01/10 07:19:23;;;;;;;13.82;3.65;;;2.60;99.90;;;;;;6123042;22;20325;-85
2023/01/10 07:22:19;;;;;;;12.23;3.22;;;2.60;99.90;;;;;;6102528;23;20030;-85
2023/01/10 07:25:31;;;;;;;10.77;3.47;;;2.60;99.90;;;;;;6102029;23;20085;-85
2023/01/10 07:28:41;;;;;;;17.60;3.67;;;2.60;99.90;;;;;;6100219;23;20123;-84
2023/01/10 07:32:30;;;;;;;17.45;4.78;;;2.60;99.90;;;;;;6122168;23;20429;-86
2023/01/10 07:36:37;;;;;;;15.65;4.47;;;2.60;99.90;;;;;;5997934;23;20024;-86
2023/01/10 07:52:49;;;;;;;20.23;5.63;;;2.50;99.90;;;;;;6013864;23;20020;-88
2023/01/10 07:55:38;;;;;;;21.92;6.18;;;2.60;99.90;;;;;;5954733;23;20100;-87
2023/01/10 07:58:46;;;;;;;15.63;5.28;;;2.60;99.90;;;;;;5990769;24;20052;-87
2023/01/10 08:14:00;;;;;;;15.07;4.90;;;2.70;99.90;;;;;;6064696;23;20030;-85
2023/01/10 08:26:51;;;;;;;16.73;4.15;;;2.80;99.90;;;;;;5840513;24;20026;-84
2023/01/10 08:37:59;;;;;;;11.23;3.78;;;3.00;99.90;;;;;;5893440;24;20308;-85
2023/01/10 08:41:06;;;;;;;12.77;4.55;;;3.00;99.90;;;;;;5986661;23;20038;-84
2023/01/10 08:52:54;;;;;;;22.75;4.60;;;3.00;99.90;;;;;;6134723;23;20030;-85
2023/01/10 08:56:38;;;;;;;21.45;5.18;;;3.10;99.90;;;;;;6098808;23;20030;-86
2023/01/10 09:04:08;;;;;;;19.80;5.43;;;3.10;99.90;;;;;;6123082;23;20033;-85
2023/01/10 09:07:59;;;;;;;18.08;5.00;;;3.10;99.90;;;;;;5969112;23;20520;-85
2023/01/10 09:11:04;;;;;;;20.05;4.18;;;3.10;1.00;;;;;;5959219;24;20024;-88
2023/01/10 09:13:53;;;;;;;18.30;4.72;;;3.20;12.30;;;;;;5959759;24;20028;-85
2023/01/10 09:17:26;;;;;;;20.88;5.18;;;3.20;23.00;;;;;;5977753;24;20039;-87
2023/01/10 09:20:52;;;;;;;16.63;4.70;;;3.10;25.60;;;;;;5982736;23;20028;-87
2023/01/10 09:24:07;;;;;;;16.23;4.78;;;3.20;99.90;;;;;;6076223;23;20023;-85
2023/01/10 09:27:01;;;;;;;17.80;4.82;;;3.10;99.90;;;;;;6163676;23;20072;-86
2023/01/10 09:30:00;;;;;;;19.92;3.97;;;3.20;83.70;;;;;;6189565;23;20376;-85
2023/01/10 09:33:12;;;;;;;;;;;;;;;;;;;;;
2023/01/10 09:36:14;;;;;;;;;;;;;;;;;;;;;
2023/01/10 09:39:24;;;;;;;22.45;6.03;;;3.30;99.90;;;;;;6184731;23;20128;-87
2023/01/10 09:42:55;;;;;;;;;;;;;;;;;;;;;
2023/01/10 09:46:13;;;;;;;12.90;4.85;;;3.50;2.50;;;;;;6182244;23;20048;-87
2023/01/10 09:49:25;;;;;;;14.48;4.95;;;3.60;1.00;;;;;;6184660;23;20087;-87
2023/01/10 09:52:38;;;;;;;10.43;3.50;;;3.70;1.00;;;;;;6187925;23;20032;-85
2023/01/10 09:55:42;;;;;;;10.95;3.58;;;3.80;99.90;;;;;;6187392;23;20052;-86
2023/01/10 09:58:37;;;;;;;14.65;4.15;;;3.80;99.90;;;;;;6187469;23;20032;-90
2023/01/10 10:02:28;;;;;;;14.00;4.05;;;3.90;99.90;;;;;;6181747;23;20032;-87
2023/01/10 10:06:01;;;;;;;;;;;;;;;;;;;;;
2023/01/10 10:09:23;;;;;;;9.50;3.08;;;4.40;99.90;;;;;;5966618;24;20111;-86
2023/01/10 10:12:44;;;;;;;;;;;4.50;1.00;;;;;;5980496;24;20532;-86
2023/01/10 10:16:15;;;;;;;12.50;2.60;;;4.40;99.90;;;;;;6047988;23;19939;-87
2023/01/10 10:20:12;;;;;;;;;;;;;;;;;;;;;
2023/01/10 10:23:34;;;;;;;12.63;2.45;;;4.40;1.00;;;;;;5955147;23;20481;-87
2023/01/10 10:27:22;;;;;;;10.20;2.80;;;4.40;99.90;;;;;;5922026;24;20033;-87
2023/01/10 10:30:42;;;;;;;11.52;3.08;;;4.50;37.20;;;;;;5895446;24;20026;-88
2023/01/10 10:34:00;;;;;;;8.10;2.72;;;4.40;1.00;;;;;;5985653;23;20096;-85
2023/01/10 10:37:14;;;;;;;10.07;2.85;;;4.30;99.90;;;;;;5978845;23;20024;-90
2023/01/10 10:45:40;;;;;;;;;;;;;;;;;;;;;
2023/01/10 10:53:48;;;;;;;;;;;;;;;;;;;;;
2023/01/10 10:57:24;;;;;;;10.52;2.80;;;4.80;99.90;;;;;;5940232;24;20056;-86
2023/01/10 11:01:01;;;;;;;;;;;;;;;;;;;;;
2023/01/10 11:08:47;;;;;;;11.38;2.60;;;4.70;1.00;;;;;;6011887;23;20015;-87
2023/01/10 11:12:46;;;;;;;9.63;3.08;;;4.80;1.00;;;;;;5951811;23;20025;-85
2023/01/10 11:33:23;;;;;;;;;;;;;;;;;;;;;
2023/01/10 11:45:33;;;;;;;10.57;2.28;;;4.50;1.00;;;;;;6094995;23;20017;-86
2023/01/10 11:49:31;;;;;;;9.85;3.00;;;4.70;1.00;;;;;;6053517;23;20114;-86
2023/01/10 11:53:36;;;;;;;6.53;2.40;;;5.70;1.00;;;;;;6070235;23;20097;-86
2023/01/10 11:57:54;;;;;;;8.57;2.47;;;5.70;99.90;;;;;;6036938;23;20016;-87
2023/01/10 12:06:27;;;;;;;;;;;;;;;;;;;;;
2023/01/10 12:14:02;;;;;;;10.38;2.10;;;5.40;99.90;;;;;;6046718;23;20022;-88
2023/01/10 12:30:48;;;;;;;;;;;;;;;;;;;;;
2023/01/10 13:04:24;;;;;;;13.75;2.78;;;6.40;1.00;;;;;;5970589;23;20091;-89
2023/01/10 13:11:59;;;;;;;10.95;2.88;;;7.50;1.00;;;;;;5964813;23;20039;-88
2023/01/10 13:19:20;;;;;;;8.23;2.20;;;9.40;1.00;;;;;;5877445;24;20030;-86
2023/01/10 13:23:05;;;;;;;13.95;3.30;;;10.00;99.90;;;;;;5868780;24;20049;-90
2023/01/10 13:34:46;;;;;;;;;;;;;;;;;;;;;
2023/01/10 13:52:01;;;;;;;;;;;;;;;;;;;;;
2023/01/10 13:54:35;;;;;;;9.15;2.58;;;8.10;99.90;;;;;;5851395;24;20341;-87
2023/01/10 14:02:33;;;;;;;10.20;2.30;;;7.70;99.90;;;;;;5873026;24;20024;-87
2023/01/10 14:06:01;;;;;;;11.77;2.65;;;7.50;99.90;;;;;;5870723;24;20027;-89
2023/01/10 14:09:24;;;;;;;10.70;2.75;;;6.90;99.90;;;;;;5992681;23;20073;-90
2023/01/10 14:17:00;;;;;;;7.97;2.83;;;6.20;99.90;;;;;;6074605;23;20014;-87
2023/01/10 14:20:36;;;;;;;9.27;2.42;;;6.30;99.90;;;;;;6112536;23;20057;-87
2023/01/10 14:23:51;;;;;;;10.88;2.13;;;6.10;99.90;;;;;;6086430;23;20454;-86
2023/01/10 14:27:10;;;;;;;10.73;2.75;;;6.40;99.90;;;;;;6076535;23;20061;-87
2023/01/10 14:30:36;;;;;;;9.85;2.45;;;6.70;99.90;;;;;;6092208;23;20030;-87
2023/01/10 14:33:44;;;;;;;11.80;2.55;;;6.40;99.90;;;;;;6075488;23;20092;-87
2023/01/10 14:37:19;;;;;;;7.25;2.38;;;5.90;99.90;;;;;;6071441;23;20103;-86
2023/01/10 14:41:06;;;;;;;12.18;2.97;;;5.60;99.90;;;;;;6079921;23;20092;-87
2023/01/10 14:48:30;;;;;;;11.45;2.72;;;5.40;99.90;;;;;;6061125;23;20020;-87
2023/01/10 14:52:23;;;;;;;;;;;;;;;;;;;;;
2023/01/10 15:03:51;;;;;;;14.00;2.60;;;4.70;1.00;;;;;;5870536;23;20022;-87
2023/01/10 15:07:18;;;;;;;11.98;2.60;;;4.60;1.00;;;;;;5869709;24;20708;-86
2023/01/10 15:10:43;;;;;;;12.88;3.55;;;4.60;1.00;;;;;;5878147;24;20137;-86
2023/01/10 15:14:28;;;;;;;;;;;;;;;;;;;;;
2023/01/10 15:18:30;;;;;;;17.38;3.25;;;4.40;1.00;;;;;;6074830;23;20031;-87
2023/01/10 15:21:27;;;;;;;12.10;3.05;;;4.40;1.00;;;;;;6049581;23;20104;-85
2023/01/10 15:28:22;;;;;;;6.68;2.38;;;4.30;1.00;;;;;;6081860;23;20011;-85
2023/01/10 15:31:10;;;;;;;14.55;3.05;;;4.30;1.00;;;;;;6063516;23;20029;-88
2023/01/10 15:33:59;;;;;;;14.35;2.33;;;4.30;1.00;;;;;;6062847;23;20023;-86
2023/01/10 15:36:56;;;;;;;9.05;2.60;;;4.30;1.00;;;;;;6063871;23;20038;-86
2023/01/10 15:40:24;;;;;;;12.98;2.72;;;4.20;1.00;;;;;;6157115;23;20457;-86
2023/01/10 15:43:49;;;;;;;8.32;2.42;;;4.10;1.00;;;;;;6157937;23;20041;-85
2023/01/10 15:46:58;;;;;;;9.50;2.42;;;4.10;1.00;;;;;;6159933;23;20029;-86
2023/01/10 15:50:02;;;;;;;7.82;2.67;;;4.00;1.00;;;;;;6145031;23;20033;-86
2023/01/10 15:53:05;;;;;;;16.30;3.10;;;4.00;1.00;;;;;;6142774;23;20167;-87
2023/01/10 15:56:16;;;;;;;12.43;3.38;;;3.90;1.00;;;;;;6045690;23;20027;-87
2023/01/10 15:59:31;;;;;;;7.22;2.55;;;3.80;1.00;;;;;;6047102;23;20016;-85
2023/01/10 16:07:02;;;;;;;;;;;;;;;;;;;;;
2023/01/10 16:14:21;;;;;;;12.18;2.88;;;3.50;55.60;;;;;;6130978;23;20018;-86
2023/01/10 16:17:41;;;;;;;17.98;3.70;;;3.50;74.00;;;;;;6115960;23;20022;-87
2023/01/10 16:20:51;;;;;;;10.18;3.20;;;3.50;79.30;;;;;;6111446;23;20026;-87
2023/01/10 16:24:17;;;;;;;7.53;2.85;;;3.60;70.90;;;;;;6189920;23;20017;-85
2023/01/10 16:27:55;;;;;;;7.70;3.17;;;3.50;55.00;;;;;;6156985;23;20045;-86
2023/01/10 16:31:13;;;;;;;11.68;3.17;;;3.50;58.00;;;;;;6165482;23;20017;-87
2023/01/10 16:34:02;;;;;;;10.05;3.10;;;3.50;54.70;;;;;;6172833;23;20028;-86
2023/01/10 16:36:52;;;;;;;9.32;3.15;;;3.50;56.80;;;;;;6176496;23;20039;-87
2023/01/10 16:39:44;;;;;;;12.68;3.00;;;3.50;66.30;;;;;;6182006;23;20020;-86
2023/01/10 16:45:59;;;;;;;13.82;3.28;;;3.50;53.00;;;;;;6208798;22;20059;-85
2023/01/10 16:48:52;;;;;;;22.88;3.88;;;3.50;53.90;;;;;;6186356;23;20136;-85
2023/01/10 16:51:39;;;;;;;7.80;2.28;;;3.50;48.70;;;;;;6179315;23;20021;-85
2023/01/10 16:54:35;;;;;;;9.93;2.47;;;3.60;41.40;;;;;;6148424;23;20026;-85
2023/01/10 16:57:29;;;;;;;11.32;2.90;;;3.60;29.20;;;;;;6130499;23;20037;-88
2023/01/10 17:00:20;;;;;;;16.23;3.47;;;3.60;19.90;;;;;;6108569;23;20418;-86
2023/01/10 17:03:20;;;;;;;7.05;2.72;;;3.60;15.10;;;;;;6115620;23;20030;-88
2023/01/10 17:06:22;;;;;;;9.07;2.65;;;3.60;3.70;;;;;;6136757;23;20029;-86
2023/01/10 17:09:25;;;;;;;9.50;2.72;;;3.60;1.00;;;;;;6097390;23;20030;-88
2023/01/10 17:12:18;;;;;;;10.23;3.13;;;3.60;1.00;;;;;;6116403;23;20036;-86
2023/01/10 17:15:13;;;;;;;11.82;3.22;;;3.60;1.00;;;;;;6119355;23;20033;-88
2023/01/10 17:18:20;;;;;;;11.80;3.75;;;3.50;1.00;;;;;;6125442;23;20079;-87
2023/01/10 17:21:29;;;;;;;9.20;3.63;;;3.50;1.00;;;;;;6127550;22;20028;-88
2023/01/10 17:24:16;;;;;;;7.63;2.72;;;3.50;1.00;;;;;;6114317;23;20029;-88
2023/01/10 17:27:19;;;;;;;7.38;2.53;;;3.50;1.00;;;;;;6115777;23;20026;-88
2023/01/10 17:30:11;;;;;;;9.02;2.75;;;3.60;1.00;;;;;;6132438;23;20049;-88
2023/01/10 17:33:00;;;;;;;12.07;3.58;;;3.60;1.00;;;;;;6117129;23;20026;-88
2023/01/10 17:35:57;;;;;;;6.80;2.78;;;3.50;1.00;;;;;;6109459;23;20029;-87
2023/01/10 17:38:47;;;;;;;13.18;3.17;;;3.50;1.00;;;;;;6127801;23;20417;-88
2023/01/10 17:41:38;;;;;;;11.15;3.47;;;3.50;1.00;;;;;;6113693;23;20045;-89
2023/01/10 17:44:28;;;;;;;11.82;4.38;;;3.50;1.00;;;;;;6109805;23;20033;-87
2023/01/10 17:47:15;;;;;;;14.75;3.30;;;3.50;1.00;;;;;;6108676;23;20034;-86
2023/01/10 17:50:04;;;;;;;9.60;3.30;;;3.60;1.00;;;;;;6106246;23;20030;-88
2023/01/10 17:52:52;;;;;;;11.10;2.78;;;3.50;1.00;;;;;;6106385;23;20022;-88
2023/01/10 17:55:48;;;;;;;8.93;2.90;;;3.60;1.00;;;;;;6105558;23;20030;-87
2023/01/10 17:58:39;;;;;;;9.95;2.78;;;3.60;1.00;;;;;;6106063;23;20026;-86
2023/01/10 18:01:32;;;;;;;10.57;2.85;;;3.60;1.00;;;;;;6105902;23;20091;-87
2023/01/10 18:04:20;;;;;;;7.53;2.47;;;3.60;1.00;;;;;;6102150;23;20420;-86
2023/01/10 18:07:54;;;;;;;7.50;2.42;;;3.50;1.00;;;;;;6105432;23;20709;-87
2023/01/10 18:10:59;;;;;;;9.95;3.10;;;3.50;1.00;;;;;;6108928;23;20409;-87
2023/01/10 18:17:28;;;;;;;11.85;2.70;;;3.50;1.00;;;;;;6115261;22;20309;-87
2023/01/10 18:20:28;;;;;;;8.98;2.75;;;3.50;1.00;;;;;;6112689;23;20077;-87
2023/01/10 18:26:50;;;;;;;8.07;2.80;;;3.50;1.00;;;;;;6123442;23;20040;-89
2023/01/10 18:29:38;;;;;;;13.25;3.53;;;3.50;1.00;;;;;;6104411;23;20026;-88
2023/01/10 18:32:26;;;;;;;10.63;3.03;;;3.50;1.00;;;;;;6103689;23;20026;-87
2023/01/10 18:35:25;;;;;;;7.43;2.83;;;3.50;1.00;;;;;;6105697;23;20421;-85
2023/01/10 18:38:16;;;;;;;11.13;3.42;;;3.50;1.00;;;;;;6107045;23;20030;-86
2023/01/10 18:41:06;;;;;;;15.90;4.78;;;3.50;1.00;;;;;;6084146;23;20026;-88
2023/01/10 18:43:56;;;;;;;18.00;3.60;;;3.60;1.00;;;;;;6104475;23;20126;-87
2023/01/10 18:46:44;;;;;;;13.63;3.83;;;3.50;1.00;;;;;;6083794;23;20081;-87
2023/01/10 18:49:48;;;;;;;9.55;2.97;;;3.50;1.00;;;;;;6108334;23;20053;-88
2023/01/10 18:52:38;;;;;;;8.18;3.20;;;3.50;2.70;;;;;;6104273;23;20498;-87
2023/01/10 18:55:31;;;;;;;9.45;3.00;;;3.50;9.20;;;;;;6088257;23;20042;-88
2023/01/10 18:58:23;;;;;;;6.72;3.58;;;3.50;8.00;;;;;;6104213;23;20061;-87
2023/01/10 19:01:53;;;;;;;20.77;4.97;;;3.60;8.20;;;;;;6125304;23;20032;-92
2023/01/10 19:04:41;;;;;;;13.55;4.10;;;3.60;10.30;;;;;;6103067;23;20026;-87
2023/01/10 19:07:37;;;;;;;8.98;3.03;;;3.60;17.80;;;;;;6111260;23;20034;-88
2023/01/10 19:10:45;;;;;;;9.80;4.65;;;3.60;15.60;;;;;;6124833;23;20053;-87
2023/01/10 19:14:06;;;;;;;9.40;3.17;;;3.70;13.00;;;;;;6108532;23;20321;-87
2023/01/10 19:17:21;;;;;;;8.05;3.38;;;3.70;7.10;;;;;;6105157;23;20029;-90
2023/01/10 19:20:15;;;;;;;12.32;3.42;;;3.70;1.00;;;;;;6077230;23;20026;-87
2023/01/10 19:23:04;;;;;;;10.55;3.80;;;3.70;1.00;;;;;;6094180;23;20485;-89
2023/01/10 19:25:57;;;;;;;15.20;3.65;;;3.70;1.00;;;;;;6092157;23;20096;-88
2023/01/10 19:28:48;;;;;;;12.00;3.17;;;3.80;1.00;;;;;;6094190;23;20026;-88
2023/01/10 19:31:42;;;;;;;12.32;3.85;;;3.80;1.00;;;;;;6094050;23;20054;-88
2023/01/10 19:34:40;;;;;;;14.65;6.43;;;3.80;1.00;;;;;;6094204;23;20034;-86
2023/01/10 19:37:35;;;;;;;;;;;3.80;1.00;;;;;;6093387;23;20122;-89
2023/01/10 19:40:37;;;;;;;8.95;3.65;;;3.90;1.00;;;;;;6095005;23;19917;-89
2023/01/10 19:43:25;;;;;;;7.78;3.63;;;3.90;1.00;;;;;;6093828;23;20030;-88
2023/01/10 19:46:17;;;;;;;;;;;3.90;1.00;;;;;;6094248;23;20030;-91
2023/01/10 19:49:18;;;;;;;8.27;3.33;;;3.90;1.00;;;;;;6103839;23;20009;-89
2023/01/10 19:52:32;;;;;;;7.82;4.28;;;3.90;1.00;;;;;;6122280;23;20088;-87
2023/01/10 19:55:23;;;;;;;8.43;3.63;;;3.90;1.00;;;;;;6095999;23;20026;-88
2023/01/10 19:58:30;;;;;;;11.65;4.90;;;3.80;1.00;;;;;;6104537;23;20033;-90
2023/01/10 20:01:31;;;;;;;8.23;3.78;;;3.80;1.00;;;;;;6126361;23;20428;-89
2023/01/10 20:04:51;;;;;;;7.40;2.95;;;3.80;1.00;;;;;;6108624;23;20085;-90
2023/01/10 20:08:05;;;;;;;8.60;2.78;;;3.80;1.00;;;;;;6109857;23;20337;-88
2023/01/10 20:11:04;;;;;;;;;;;;;;;;;;;;;
2023/01/10 20:14:19;;;;;;;7.90;2.58;;;3.80;1.00;;;;;;6124432;23;20064;-89
2023/01/10 20:17:10;;;;;;;8.07;3.20;;;3.90;1.00;;;;;;6108784;23;20033;-88
2023/01/10 20:19:59;;;;;;;11.38;4.03;;;3.90;1.00;;;;;;6103172;23;20093;-87
2023/01/10 20:23:00;;;;;;;12.30;3.05;;;3.90;1.00;;;;;;6103689;23;20034;-88
2023/01/10 20:26:08;;;;;;;;;;;;;;;;;;;;;
2023/01/10 20:29:17;;;;;;;6.85;2.80;;;4.10;1.00;;;;;;6125279;23;20079;-88
2023/01/10 20:32:12;;;;;;;9.52;2.90;;;4.10;1.00;;;;;;6103214;23;20065;-89
2023/01/10 20:35:04;;;;;;;5.97;2.78;;;4.10;1.00;;;;;;6103404;23;20120;-89
2023/01/10 20:38:06;;;;;;;7.13;2.40;;;4.10;1.00;;;;;;6105916;23;20034;-88
2023/01/10 20:44:38;;;;;;;7.05;2.65;;;4.10;1.00;;;;;;6136235;22;20325;-88
2023/01/10 20:47:38;;;;;;;6.25;2.38;;;4.10;1.00;;;;;;6116254;23;20049;-89
2023/01/10 20:50:43;;;;;;;8.10;2.70;;;4.20;1.00;;;;;;6116578;23;20500;-88
2023/01/10 20:53:33;;;;;;;6.05;2.42;;;4.20;1.00;;;;;;6107423;23;20429;-88
2023/01/10 20:56:23;;;;;;;7.32;2.95;;;4.30;1.00;;;;;;6112043;23;20082;-88
2023/01/10 20:59:12;;;;;;;10.25;2.72;;;4.30;1.00;;;;;;6115582;23;20029;-88
2023/01/10 21:02:02;;;;;;;10.18;3.63;;;4.30;1.00;;;;;;6112587;23;20037;-89
2023/01/10 21:05:01;;;;;;;8.73;2.72;;;4.30;1.00;;;;;;6108938;23;20033;-88
2023/01/10 21:07:50;;;;;;;9.57;3.03;;;4.30;1.00;;;;;;6108880;23;20029;-89
2023/01/10 21:10:54;;;;;;;7.65;3.25;;;4.30;1.00;;;;;;6105525;23;20037;-88
2023/01/10 21:13:53;;;;;;;8.38;2.50;;;4.30;1.00;;;;;;6123908;23;20030;-89
2023/01/10 21:16:54;;;;;;;8.27;2.15;;;4.20;1.00;;;;;;6127152;23;20029;-87
2023/01/10 21:20:03;;;;;;;6.00;2.50;;;4.10;1.00;;;;;;6097489;23;20425;-89
2023/01/10 21:22:53;;;;;;;6.07;2.08;;;3.90;1.00;;;;;;6103484;23;20680;-88
2023/01/10 21:25:52;;;;;;;6.80;2.20;;;3.80;1.00;;;;;;6104500;23;20030;-87
2023/01/10 21:28:53;;;;;;;12.25;2.88;;;3.80;4.10;;;;;;6089725;23;20436;-89
2023/01/10 21:31:43;;;;;;;8.43;2.20;;;3.80;19.70;;;;;;6110541;23;20030;-88
2023/01/10 21:34:39;;;;;;;6.93;2.42;;;3.80;22.30;;;;;;6123494;23;20033;-89
2023/01/10 21:37:43;;;;;;;6.63;2.20;;;3.90;39.30;;;;;;6104901;23;20026;-87
2023/01/10 21:40:32;;;;;;;9.10;2.55;;;3.90;45.90;;;;;;6103843;23;20030;-85
2023/01/10 21:43:23;;;;;;;7.97;2.50;;;3.90;49.10;;;;;;6103177;23;20034;-88
2023/01/10 21:46:16;;;;;;;8.30;2.70;;;4.00;40.30;;;;;;6104229;23;20025;-90
2023/01/10 21:49:04;;;;;;;8.52;2.40;;;4.10;20.30;;;;;;6102589;23;20040;-90
2023/01/10 21:51:52;;;;;;;6.57;2.90;;;4.10;6.70;;;;;;6103926;23;20607;-89
2023/01/10 21:54:42;;;;;;;5.60;2.10;;;4.20;1.00;;;;;;6103373;23;20037;-89
2023/01/10 21:57:43;;;;;;;5.15;2.22;;;4.30;1.00;;;;;;6106622;23;20385;-88
2023/01/10 22:00:31;;;;;;;8.85;2.53;;;4.30;1.00;;;;;;6103134;23;20041;-88
2023/01/10 22:03:21;;;;;;;5.18;2.17;;;4.30;1.00;;;;;;6102835;23;20129;-88
2023/01/10 22:06:26;;;;;;;6.07;3.03;;;4.40;1.00;;;;;;6102028;23;20030;-87